Time;durP1;ratioP1;P1;durP2;ratioP2;P2;SDS_P1;SDS_P2;PMS_P1;PMS_P2;Temp;Humidity;BMP_temperature;BMP_pressure;BME280_temperature;BME280_humidity;BME280_pressure;Samples;Min_cycle;Max_cycle;Signal;HPM_P1;HPM_P2
2022/06/11 00:02:01;;;;;;;6.30;5.17;;;15.80;93.80;;;;;;5095778;28;20421;-45
2022/06/11 00:04:41;;;;;;;4.67;4.27;;;15.70;93.90;;;;;;5093093;28;20919;-44
2022/06/11 00:07:15;;;;;;;5.03;4.60;;;15.70;94.10;;;;;;5093607;28;20476;-45
2022/06/11 00:09:41;;;;;;;4.57;4.17;;;15.70;94.10;;;;;;5094810;28;20493;-45
2022/06/11 00:12:08;;;;;;;4.70;4.27;;;15.60;94.20;;;;;;5095533;28;20478;-45
2022/06/11 00:14:34;;;;;;;5.83;5.20;;;15.60;94.30;;;;;;5095937;28;20487;-45
2022/06/11 00:17:02;;;;;;;6.00;4.90;;;15.60;94.30;;;;;;5096014;28;20542;-45
2022/06/11 00:19:29;;;;;;;6.10;4.20;;;15.50;94.50;;;;;;5095540;28;20411;-45
2022/06/11 00:21:55;;;;;;;6.73;5.80;;;15.50;94.70;;;;;;5095762;28;20407;-45
2022/06/11 00:24:23;;;;;;;5.80;5.27;;;15.40;94.70;;;;;;5097184;28;20430;-45
2022/06/11 00:26:50;;;;;;;7.60;5.47;;;15.50;94.70;;;;;;5097305;28;20407;-45
2022/06/11 00:29:17;;;;;;;5.50;4.93;;;15.50;94.70;;;;;;5096630;28;20722;-45
2022/06/11 00:31:43;;;;;;;5.53;4.90;;;15.50;94.60;;;;;;5097058;28;20466;-46
2022/06/11 00:34:10;;;;;;;5.37;4.87;;;15.50;94.50;;;;;;5096122;28;20712;-45
2022/06/11 00:36:36;;;;;;;5.70;5.20;;;15.50;94.70;;;;;;5094728;28;20789;-45
2022/06/11 00:39:04;;;;;;;5.80;4.70;;;15.40;94.70;;;;;;5094056;28;20715;-45
2022/06/11 00:41:32;;;;;;;5.73;5.13;;;15.40;94.70;;;;;;5095534;28;20495;-45
2022/06/11 00:43:58;;;;;;;5.70;5.20;;;15.40;94.70;;;;;;5095713;28;20433;-45
2022/06/11 00:46:38;;;;;;;4.70;4.30;;;15.30;94.70;;;;;;5096152;28;20429;-45
2022/06/11 00:49:39;;;;;;;4.87;4.47;;;15.30;94.80;;;;;;5094497;28;20259;-45
2022/06/11 00:52:10;;;;;;;4.60;4.20;;;15.30;94.60;;;;;;5013031;28;20450;-45
2022/06/11 00:54:38;;;;;;;7.00;4.53;;;15.30;94.70;;;;;;5082159;28;20426;-45
2022/06/11 00:57:05;;;;;;;4.37;3.90;;;15.30;94.30;;;;;;5094759;28;20439;-45
2022/06/11 00:59:40;;;;;;;5.43;4.27;;;15.30;94.40;;;;;;5095812;28;20457;-45
2022/06/11 01:02:06;;;;;;;4.73;4.33;;;15.30;94.50;;;;;;5095259;28;20415;-45
2022/06/11 01:04:37;;;;;;;5.83;4.30;;;15.30;94.60;;;;;;5097300;28;20433;-47
2022/06/11 01:07:14;;;;;;;4.93;4.43;;;15.20;94.50;;;;;;5096234;28;20425;-46
2022/06/11 01:10:02;;;;;;;4.27;3.90;;;15.20;94.50;;;;;;5095933;28;20466;-45
2022/06/11 01:15:58;;;;;;;4.73;4.27;;;15.20;94.40;;;;;;5096020;28;20402;-46
2022/06/11 01:18:32;;;;;;;4.40;3.83;;;15.20;94.60;;;;;;5095843;28;20477;-46
2022/06/11 01:21:35;;;;;;;4.30;3.63;;;15.20;94.60;;;;;;5095138;28;20765;-46
2022/06/11 01:24:25;;;;;;;4.93;4.10;;;15.10;94.60;;;;;;5095726;28;20503;-46
2022/06/11 01:27:08;;;;;;;4.40;3.70;;;15.10;94.60;;;;;;5095770;28;20819;-46
2022/06/11 01:29:42;;;;;;;4.90;4.40;;;15.10;94.70;;;;;;5077596;28;20771;-46
2022/06/11 01:32:20;;;;;;;5.47;4.50;;;15.10;94.70;;;;;;5095275;28;20428;-45
2022/06/11 01:34:49;;;;;;;4.17;3.77;;;15.00;94.70;;;;;;5094890;28;20513;-46
2022/06/11 01:37:24;;;;;;;5.53;4.60;;;15.00;94.70;;;;;;5096103;28;20423;-46
2022/06/11 01:39:55;;;;;;;4.03;3.73;;;15.00;94.80;;;;;;5095226;28;20421;-46
2022/06/11 01:42:27;;;;;;;4.60;4.20;;;15.00;94.70;;;;;;5096863;28;20446;-46
2022/06/11 01:45:11;;;;;;;4.47;4.07;;;14.90;94.70;;;;;;5096232;28;20447;-46
2022/06/11 01:47:36;;;;;;;3.90;3.30;;;15.00;94.80;;;;;;5095979;28;20416;-45
2022/06/11 01:50:04;;;;;;;4.40;4.00;;;14.90;94.80;;;;;;5094744;28;20466;-45
2022/06/11 01:52:33;;;;;;;4.03;3.73;;;14.90;94.80;;;;;;5095265;28;20513;-45
2022/06/11 01:55:10;;;;;;;4.57;3.90;;;14.80;94.80;;;;;;5098668;28;20442;-45
2022/06/11 01:58:00;;;;;;;4.70;3.97;;;14.80;94.80;;;;;;5099753;28;20423;-46
2022/06/11 02:00:37;;;;;;;13.13;4.70;;;14.70;95.00;;;;;;5099863;28;20821;-45
2022/06/11 02:03:23;;;;;;;4.03;3.63;;;14.70;95.00;;;;;;5099557;28;21024;-45
2022/06/11 02:06:04;;;;;;;4.30;3.90;;;14.70;95.10;;;;;;5099230;28;20419;-45
2022/06/11 02:08:42;;;;;;;3.73;3.43;;;14.70;95.20;;;;;;5100406;28;20427;-46
2022/06/11 02:11:13;;;;;;;3.87;3.57;;;14.70;95.20;;;;;;5100297;28;20463;-45
2022/06/11 02:14:02;;;;;;;3.83;2.83;;;14.70;95.10;;;;;;5100818;28;20476;-46
2022/06/11 02:16:41;;;;;;;3.80;3.47;;;14.70;95.00;;;;;;5062247;28;20427;-46
2022/06/11 02:19:17;;;;;;;4.30;3.90;;;14.70;94.80;;;;;;5100322;28;20425;-46
2022/06/11 02:21:53;;;;;;;3.50;3.20;;;14.70;94.80;;;;;;5100169;28;20715;-45
2022/06/11 02:24:27;;;;;;;4.17;3.77;;;14.60;94.90;;;;;;5100609;28;20865;-46
2022/06/11 02:26:56;;;;;;;3.80;3.50;;;14.60;95.00;;;;;;5082065;28;20897;-46
2022/06/11 02:29:23;;;;;;;3.97;3.57;;;14.60;94.90;;;;;;5081404;28;20963;-46
2022/06/11 02:32:05;;;;;;;6.27;3.60;;;14.70;94.90;;;;;;5100170;28;20427;-46
2022/06/11 02:34:31;;;;;;;4.73;3.17;;;14.70;94.70;;;;;;5098977;28;20427;-46
2022/06/11 02:37:10;;;;;;;4.13;3.30;;;14.70;94.70;;;;;;5099699;28;20424;-46
2022/06/11 02:39:39;;;;;;;3.87;3.57;;;14.70;94.80;;;;;;5100109;28;20416;-46
2022/06/11 02:42:06;;;;;;;4.07;3.70;;;14.70;95.20;;;;;;5099420;28;20492;-46
2022/06/11 02:44:32;;;;;;;4.47;3.90;;;14.80;94.80;;;;;;5099552;28;20801;-46
2022/06/11 02:46:58;;;;;;;5.03;3.60;;;14.70;94.70;;;;;;5099400;28;20495;-46
2022/06/11 02:49:31;;;;;;;3.97;3.57;;;14.70;94.80;;;;;;5099430;28;20411;-46
2022/06/11 02:51:59;;;;;;;3.80;3.50;;;14.70;94.80;;;;;;5098482;28;20581;-46
2022/06/11 02:54:28;;;;;;;4.50;3.60;;;14.70;94.70;;;;;;5098995;28;20412;-46
2022/06/11 02:56:57;;;;;;;4.10;3.70;;;14.70;94.70;;;;;;5099007;28;20447;-46
2022/06/11 02:59:24;;;;;;;4.60;3.60;;;14.70;94.90;;;;;;5099431;28;20750;-46
2022/06/11 03:01:52;;;;;;;4.23;3.87;;;14.70;94.80;;;;;;5099061;28;20431;-46
2022/06/11 03:04:18;;;;;;;4.93;3.83;;;14.70;94.60;;;;;;5099284;28;20564;-46
2022/06/11 03:06:44;;;;;;;4.43;3.87;;;14.60;94.70;;;;;;5099254;28;20495;-46
2022/06/11 03:09:19;;;;;;;5.40;3.70;;;14.60;94.80;;;;;;5099357;28;20427;-46
2022/06/11 03:11:45;;;;;;;4.73;4.33;;;14.60;94.70;;;;;;5098633;28;20470;-46
2022/06/11 03:14:12;;;;;;;5.00;4.13;;;14.60;94.70;;;;;;5098411;28;20418;-47
2022/06/11 03:16:39;;;;;;;5.07;4.20;;;14.60;94.80;;;;;;5098282;28;20421;-46
2022/06/11 03:19:06;;;;;;;3.97;3.57;;;14.60;94.70;;;;;;5097417;28;20420;-46
2022/06/11 03:21:32;;;;;;;4.47;4.00;;;14.60;94.80;;;;;;5097916;28;20424;-46
2022/06/11 03:23:58;;;;;;;4.10;3.70;;;14.60;94.80;;;;;;5098038;28;20412;-46
2022/06/11 03:26:24;;;;;;;6.13;4.40;;;14.60;94.80;;;;;;5097348;28;20879;-46
2022/06/11 03:28:51;;;;;;;4.70;4.17;;;14.60;94.80;;;;;;5097511;28;20305;-46
2022/06/11 03:31:17;;;;;;;5.23;4.00;;;14.60;94.80;;;;;;5096525;28;20768;-46
2022/06/11 03:33:43;;;;;;;5.60;5.10;;;14.60;95.00;;;;;;5096807;28;20416;-46
2022/06/11 03:36:11;;;;;;;3.90;3.50;;;14.60;94.80;;;;;;5098147;28;20419;-46
2022/06/11 03:38:39;;;;;;;4.70;3.63;;;14.60;94.90;;;;;;5097747;28;20705;-46
2022/06/11 03:41:05;;;;;;;4.47;4.07;;;14.70;94.70;;;;;;5097024;28;20746;-46
2022/06/11 03:43:31;;;;;;;4.23;3.83;;;14.70;94.70;;;;;;5098708;28;20502;-46
2022/06/11 03:45:58;;;;;;;4.43;4.03;;;14.70;94.70;;;;;;5098456;28;20709;-46
2022/06/11 03:48:24;;;;;;;5.13;3.90;;;14.80;94.70;;;;;;5098502;28;20450;-46
2022/06/11 03:50:50;;;;;;;4.70;4.30;;;14.80;94.60;;;;;;5098092;28;20467;-46
2022/06/11 03:53:16;;;;;;;4.90;4.40;;;14.80;94.50;;;;;;5098839;28;20427;-46
2022/06/11 03:55:43;;;;;;;5.50;4.03;;;14.80;94.60;;;;;;5098214;28;20173;-46
2022/06/11 03:58:10;;;;;;;5.47;4.20;;;14.80;94.60;;;;;;5096239;28;20430;-46
2022/06/11 04:03:22;;;;;;;4.50;4.10;;;14.80;94.70;;;;;;5095703;28;20455;-46
2022/06/11 04:05:49;;;;;;;4.80;3.50;;;14.80;94.60;;;;;;5096271;28;20559;-46
2022/06/11 04:08:14;;;;;;;4.43;4.03;;;14.80;94.70;;;;;;5095953;28;20415;-46
2022/06/11 04:10:41;;;;;;;3.83;3.43;;;14.90;95.00;;;;;;5096692;28;20744;-46
2022/06/11 04:13:08;;;;;;;4.60;4.20;;;14.90;94.60;;;;;;5096472;28;20586;-47
2022/06/11 04:15:34;;;;;;;4.13;3.70;;;14.90;94.50;;;;;;5097480;28;20461;-46
2022/06/11 04:18:01;;;;;;;3.83;3.47;;;15.00;94.40;;;;;;5097036;28;20806;-46
2022/06/11 04:20:27;;;;;;;4.67;4.27;;;15.00;94.30;;;;;;5097459;28;20905;-46
2022/06/11 04:22:52;;;;;;;4.47;3.23;;;15.00;94.40;;;;;;5095932;28;20493;-46
2022/06/11 04:25:18;;;;;;;5.17;4.13;;;15.00;94.60;;;;;;5096340;28;20586;-46
2022/06/11 04:27:44;;;;;;;4.17;3.63;;;15.00;94.60;;;;;;5096502;28;20169;-46
2022/06/11 04:30:13;;;;;;;4.00;3.60;;;15.10;94.70;;;;;;5095979;28;20699;-46
2022/06/11 04:32:39;;;;;;;4.60;4.27;;;15.20;94.70;;;;;;5096668;28;20428;-46
2022/06/11 04:35:05;;;;;;;5.10;3.90;;;15.30;94.60;;;;;;5096371;28;20411;-46
2022/06/11 04:37:32;;;;;;;4.93;4.23;;;15.40;94.40;;;;;;5096482;28;20218;-46
2022/06/11 04:39:59;;;;;;;4.67;3.87;;;15.50;94.10;;;;;;5096028;28;20913;-45
2022/06/11 04:42:26;;;;;;;5.43;4.00;;;15.60;93.90;;;;;;5096494;28;20458;-46
2022/06/11 04:44:52;;;;;;;3.93;3.60;;;15.70;93.70;;;;;;5096165;28;20429;-46
2022/06/11 04:47:21;;;;;;;3.73;3.33;;;15.80;93.50;;;;;;5097672;28;20522;-46
2022/06/11 04:49:48;;;;;;;5.23;4.20;;;15.90;93.50;;;;;;5096649;28;20544;-46
2022/06/11 04:52:14;;;;;;;4.23;3.93;;;16.00;93.40;;;;;;5096598;28;20453;-46
2022/06/11 04:54:39;;;;;;;4.43;4.03;;;16.10;93.10;;;;;;5096442;28;20427;-46
2022/06/11 04:57:05;;;;;;;4.40;4.00;;;16.20;92.90;;;;;;5096443;28;20170;-46
2022/06/11 04:59:32;;;;;;;3.63;3.33;;;16.30;92.70;;;;;;5096343;28;20251;-46
2022/06/11 05:01:59;;;;;;;4.13;3.73;;;16.40;92.70;;;;;;5095072;28;20421;-46
2022/06/11 05:04:25;;;;;;;3.50;3.20;;;16.50;92.40;;;;;;5095591;28;20844;-46
2022/06/11 05:06:51;;;;;;;3.73;3.43;;;16.60;92.30;;;;;;5093770;28;20444;-46
2022/06/11 05:09:19;;;;;;;3.63;3.33;;;16.60;91.90;;;;;;5094529;28;20828;-46
2022/06/11 05:11:45;;;;;;;3.70;3.40;;;16.60;91.30;;;;;;5095303;28;20475;-46
2022/06/11 05:14:11;;;;;;;4.27;2.93;;;16.70;91.20;;;;;;5095056;28;20439;-46
2022/06/11 05:16:38;;;;;;;4.00;3.20;;;16.70;91.30;;;;;;5094208;28;20443;-46
2022/06/11 05:19:04;;;;;;;4.13;3.20;;;16.80;91.00;;;;;;5076256;28;20456;-46
2022/06/11 05:21:29;;;;;;;3.30;3.00;;;16.80;90.90;;;;;;5095386;28;20437;-46
2022/06/11 05:23:55;;;;;;;3.40;3.10;;;16.90;90.70;;;;;;5095084;28;20424;-46
2022/06/11 05:26:24;;;;;;;9.57;3.60;;;17.00;90.40;;;;;;5094876;28;20186;-46
2022/06/11 05:28:50;;;;;;;4.00;3.40;;;17.00;90.30;;;;;;5094657;28;20228;-46
2022/06/11 05:31:16;;;;;;;5.60;3.70;;;17.10;90.10;;;;;;5097721;28;20931;-45
2022/06/11 05:33:42;;;;;;;3.40;3.10;;;17.10;90.30;;;;;;5097936;28;20457;-45
2022/06/11 05:36:09;;;;;;;4.03;3.10;;;17.30;90.30;;;;;;5096025;28;20762;-45
2022/06/11 05:38:34;;;;;;;3.33;3.03;;;17.40;90.10;;;;;;5096548;28;20416;-46
2022/06/11 05:41:00;;;;;;;5.30;3.33;;;17.50;90.10;;;;;;5096632;28;20430;-45
2022/06/11 05:43:26;;;;;;;5.33;3.20;;;17.60;90.00;;;;;;5098127;28;20178;-46
2022/06/11 05:46:10;;;;;;;4.70;3.47;;;17.70;89.30;;;;;;5098475;28;20459;-46
2022/06/11 05:48:39;;;;;;;3.87;3.33;;;17.90;89.00;;;;;;5097736;28;20712;-45
2022/06/11 05:51:10;;;;;;;2.67;2.47;;;18.00;88.60;;;;;;5079833;28;20467;-52
2022/06/11 05:53:36;;;;;;;3.77;3.20;;;18.20;88.30;;;;;;5097649;28;20415;-46
2022/06/11 05:56:04;;;;;;;5.10;3.00;;;18.40;88.00;;;;;;5097120;28;20494;-45
2022/06/11 05:58:35;;;;;;;3.20;2.60;;;18.50;87.30;;;;;;5096616;28;20411;-46
2022/06/11 06:01:02;;;;;;;4.03;3.63;;;18.70;85.80;;;;;;5096334;28;20429;-46
2022/06/11 06:03:28;;;;;;;3.73;2.90;;;18.80;85.30;;;;;;5097717;28;20427;-45
2022/06/11 06:05:54;;;;;;;2.90;2.70;;;18.90;84.90;;;;;;5095869;28;20417;-45
2022/06/11 06:08:19;;;;;;;3.03;2.53;;;19.10;84.10;;;;;;5096288;28;20498;-47
2022/06/11 06:10:45;;;;;;;4.43;4.03;;;19.30;84.30;;;;;;5095792;28;20197;-46
2022/06/11 06:15:54;;;;;;;3.30;2.77;;;19.60;83.90;;;;;;5097265;28;20582;-46
2022/06/11 06:18:21;;;;;;;5.50;3.70;;;19.80;83.10;;;;;;5095385;28;20429;-46
2022/06/11 06:20:47;;;;;;;4.17;3.33;;;19.90;82.50;;;;;;5095752;28;20183;-46
2022/06/11 06:23:13;;;;;;;3.93;3.53;;;20.00;82.40;;;;;;5097298;28;20737;-46
2022/06/11 06:25:38;;;;;;;3.77;3.47;;;20.10;82.00;;;;;;5097592;28;20733;-46
2022/06/11 06:28:04;;;;;;;4.03;3.50;;;20.10;82.20;;;;;;5097755;28;20255;-46
2022/06/11 06:30:30;;;;;;;4.20;3.17;;;20.20;81.70;;;;;;5097222;28;20228;-47
2022/06/11 06:32:56;;;;;;;4.00;3.30;;;20.30;81.00;;;;;;5097870;28;20508;-45
2022/06/11 06:35:22;;;;;;;3.70;3.13;;;20.50;81.20;;;;;;5098743;28;20828;-46
2022/06/11 06:37:47;;;;;;;4.53;3.43;;;20.60;80.60;;;;;;5097865;28;20165;-46
2022/06/11 06:40:13;;;;;;;3.77;3.47;;;20.80;79.70;;;;;;5098134;28;20191;-46
2022/06/11 06:42:38;;;;;;;3.93;3.20;;;20.90;78.50;;;;;;5099320;28;20203;-46
2022/06/11 06:45:05;;;;;;;4.00;3.10;;;21.00;78.10;;;;;;5097827;28;20180;-46
2022/06/11 06:47:30;;;;;;;3.70;3.23;;;21.10;77.50;;;;;;5098163;28;20189;-46
2022/06/11 06:49:57;;;;;;;3.23;2.90;;;21.20;77.00;;;;;;5098706;28;20472;-46
2022/06/11 06:52:23;;;;;;;3.40;3.10;;;21.40;76.10;;;;;;5098116;28;20429;-45
2022/06/11 06:54:49;;;;;;;3.70;2.97;;;21.50;76.00;;;;;;5098946;28;20430;-46
2022/06/11 06:57:15;;;;;;;3.87;3.50;;;21.70;74.90;;;;;;5099540;28;20451;-45
2022/06/11 06:59:41;;;;;;;3.93;2.87;;;21.80;74.20;;;;;;5098807;28;20454;-45
2022/06/11 07:02:10;;;;;;;3.10;2.67;;;22.00;73.40;;;;;;5098376;28;20809;-46
2022/06/11 07:04:36;;;;;;;3.30;3.00;;;22.20;73.30;;;;;;5098791;28;20476;-44
2022/06/11 07:07:01;;;;;;;3.07;2.60;;;22.30;71.50;;;;;;5098808;28;20418;-46
2022/06/11 07:09:27;;;;;;;2.60;2.40;;;22.40;71.40;;;;;;5099043;28;20427;-42
2022/06/11 07:11:52;;;;;;;2.87;2.57;;;22.60;70.30;;;;;;5098199;28;20218;-44
2022/06/11 07:14:18;;;;;;;5.70;4.50;;;22.80;68.70;;;;;;5098115;28;20243;-47
2022/06/11 07:16:51;;;;;;;8.17;3.00;;;23.00;67.60;;;;;;5097474;28;20182;-45
2022/06/11 07:19:23;;;;;;;2.90;2.40;;;23.30;67.80;;;;;;5096569;28;20511;-45
2022/06/11 07:21:52;;;;;;;3.80;2.70;;;23.40;65.10;;;;;;5095835;28;20445;-44
2022/06/11 07:24:20;;;;;;;4.70;2.70;;;23.50;64.40;;;;;;5096926;28;20506;-43
2022/06/11 07:26:50;;;;;;;3.53;2.93;;;23.70;63.90;;;;;;5097540;28;20711;-43
2022/06/11 07:29:20;;;;;;;3.27;2.83;;;23.90;63.20;;;;;;5096952;28;20595;-46
2022/06/11 07:31:47;;;;;;;4.40;3.17;;;24.10;63.10;;;;;;5092933;28;20912;-44
2022/06/11 07:34:13;;;;;;;3.37;3.07;;;24.30;61.20;;;;;;5095170;28;20413;-44
2022/06/11 07:36:39;;;;;;;4.60;2.73;;;24.50;60.30;;;;;;5095963;28;20430;-45
2022/06/11 07:39:05;;;;;;;3.30;2.53;;;24.70;59.30;;;;;;5096431;28;20490;-44
2022/06/11 07:41:31;;;;;;;4.10;2.87;;;25.00;59.20;;;;;;5095581;28;20190;-43
2022/06/11 07:43:56;;;;;;;4.13;2.70;;;25.10;58.50;;;;;;5095988;28;20179;-45
2022/06/11 07:46:22;;;;;;;3.80;2.67;;;25.30;58.10;;;;;;5096788;28;20426;-45
2022/06/11 07:48:48;;;;;;;3.40;2.60;;;25.40;57.60;;;;;;5096373;28;20179;-45
2022/06/11 07:51:18;;;;;;;3.43;2.37;;;25.60;56.80;;;;;;5095797;28;20481;-44
2022/06/11 07:53:46;;;;;;;5.93;2.90;;;25.90;56.40;;;;;;5097598;28;20418;-46
2022/06/11 07:56:12;;;;;;;3.97;3.20;;;26.20;55.60;;;;;;5097306;28;20493;-46
2022/06/11 07:58:38;;;;;;;3.67;2.43;;;26.40;55.60;;;;;;5097068;28;20895;-43
2022/06/11 08:01:05;;;;;;;4.03;2.60;;;26.70;54.30;;;;;;5095663;28;20413;-44
2022/06/11 08:03:32;;;;;;;3.10;2.80;;;26.80;53.30;;;;;;5095034;28;20557;-43
2022/06/11 08:05:59;;;;;;;4.40;3.13;;;26.90;52.70;;;;;;5096490;28;20428;-49
2022/06/11 08:08:25;;;;;;;3.60;2.77;;;27.10;52.00;;;;;;5095371;28;20836;-43
2022/06/11 08:10:51;;;;;;;3.37;3.07;;;27.00;50.90;;;;;;5093641;28;20465;-45
2022/06/11 08:13:17;;;;;;;2.87;2.53;;;27.10;50.50;;;;;;5093753;28;20416;-43
2022/06/11 08:15:45;;;;;;;3.37;2.60;;;27.20;50.80;;;;;;5094746;28;20418;-44
2022/06/11 08:18:11;;;;;;;4.60;3.33;;;27.40;50.20;;;;;;5095285;28;20558;-44
2022/06/11 08:20:37;;;;;;;4.50;2.73;;;27.60;50.30;;;;;;5094315;28;20440;-44
2022/06/11 08:23:04;;;;;;;3.10;2.80;;;27.70;49.60;;;;;;5094633;28;20857;-43
2022/06/11 08:25:30;;;;;;;3.43;2.97;;;27.90;48.40;;;;;;5094207;28;20658;-47
2022/06/11 08:27:56;;;;;;;3.10;2.70;;;27.80;47.70;;;;;;5094970;28;20426;-45
2022/06/11 08:30:23;;;;;;;4.73;2.87;;;27.70;47.80;;;;;;5094614;28;20493;-43
2022/06/11 08:32:50;;;;;;;3.60;2.80;;;27.80;48.40;;;;;;5094653;28;20649;-46
2022/06/11 08:35:18;;;;;;;2.80;2.40;;;27.80;48.60;;;;;;5095026;28;20693;-44
2022/06/11 08:37:43;;;;;;;3.47;3.10;;;28.10;48.40;;;;;;5096184;28;20388;-46
2022/06/11 08:40:19;;;;;;;4.07;2.47;;;28.40;48.10;;;;;;5094003;28;20705;-45
2022/06/11 08:43:20;;;;;;;4.27;3.07;;;28.60;47.60;;;;;;5093614;28;20174;-47
2022/06/11 08:45:52;;;;;;;3.27;2.80;;;28.80;46.80;;;;;;5079267;28;20405;-43
2022/06/11 08:48:33;;;;;;;3.50;2.57;;;29.00;47.20;;;;;;5093458;28;20396;-45
2022/06/11 08:51:05;;;;;;;3.70;2.60;;;29.00;47.10;;;;;;5092275;28;20642;-44
2022/06/11 08:53:32;;;;;;;2.90;2.43;;;28.90;47.90;;;;;;5094426;28;20776;-45
2022/06/11 08:55:58;;;;;;;3.00;2.67;;;29.00;45.40;;;;;;5095691;28;20431;-44
2022/06/11 08:58:35;;;;;;;4.67;2.47;;;28.90;45.20;;;;;;5096262;28;20677;-44
2022/06/11 09:01:22;;;;;;;4.07;2.80;;;28.90;45.20;;;;;;5095579;28;20185;-44
2022/06/11 09:04:03;;;;;;;3.13;2.90;;;29.00;45.30;;;;;;5097839;28;20403;-43
2022/06/11 09:06:42;;;;;;;2.70;2.50;;;29.10;45.90;;;;;;5099629;28;20411;-44
2022/06/11 09:09:10;;;;;;;3.73;2.70;;;29.40;44.70;;;;;;5097849;28;20420;-42
2022/06/11 09:12:26;;;;;;;4.50;2.60;;;29.40;43.50;;;;;;5097797;28;20865;-44
2022/06/11 09:15:10;;;;;;;4.67;2.80;;;29.40;42.80;;;;;;5096614;28;20422;-44
2022/06/11 09:18:03;;;;;;;7.23;3.77;;;28.70;43.30;;;;;;5100205;28;20385;-43
2022/06/11 09:20:47;;;;;;;3.93;2.97;;;27.90;43.70;;;;;;5098022;28;20430;-46
2022/06/11 09:23:34;;;;;;;4.60;3.13;;;27.50;44.40;;;;;;5098502;28;20488;-45
2022/06/11 09:26:14;;;;;;;5.40;3.07;;;27.50;44.70;;;;;;5098053;28;20426;-44
2022/06/11 09:28:43;;;;;;;4.00;2.90;;;27.50;46.10;;;;;;5099084;28;20462;-46
2022/06/11 09:31:12;;;;;;;3.13;2.83;;;27.90;46.00;;;;;;5098031;28;20473;-43
2022/06/11 09:33:57;;;;;;;5.60;3.20;;;28.40;47.60;;;;;;5099155;28;20466;-44
2022/06/11 09:36:30;;;;;;;3.90;2.87;;;29.00;45.30;;;;;;5098871;28;20972;-44
2022/06/11 09:38:58;;;;;;;4.70;3.40;;;29.70;46.70;;;;;;5099193;28;20389;-47
2022/06/11 09:41:32;;;;;;;6.33;3.17;;;30.10;43.60;;;;;;5099284;28;20810;-45
2022/06/11 09:44:03;;;;;;;4.10;3.33;;;30.50;44.40;;;;;;5099728;28;20398;-47
2022/06/11 09:46:34;;;;;;;4.43;3.00;;;31.00;44.30;;;;;;5096218;28;20435;-44
2022/06/11 09:49:05;;;;;;;3.40;3.10;;;31.20;40.90;;;;;;5098769;28;20410;-44
2022/06/11 09:51:38;;;;;;;3.90;2.40;;;31.50;40.70;;;;;;5099328;28;20450;-44
2022/06/11 09:54:31;;;;;;;6.20;2.70;;;31.10;39.50;;;;;;5100350;28;20572;-46
2022/06/11 09:57:02;;;;;;;5.37;3.03;;;30.70;39.60;;;;;;5088653;28;20443;-44
2022/06/11 09:59:42;;;;;;;3.40;2.93;;;29.90;40.10;;;;;;5095952;28;20428;-46
2022/06/11 10:02:09;;;;;;;4.47;2.67;;;29.20;41.20;;;;;;5095631;28;20404;-46
2022/06/11 10:04:37;;;;;;;4.10;2.73;;;28.60;41.40;;;;;;5095706;28;20385;-45
2022/06/11 10:07:12;;;;;;;4.03;2.90;;;28.30;42.80;;;;;;5095759;28;20741;-46
2022/06/11 10:09:37;;;;;;;4.63;3.00;;;28.40;41.80;;;;;;5096461;28;20418;-45
2022/06/11 10:12:46;;;;;;;4.87;3.23;;;28.70;41.40;;;;;;5096426;28;20444;-45
2022/06/11 10:15:20;;;;;;;4.77;2.90;;;28.90;43.00;;;;;;5089374;28;20283;-44
2022/06/11 10:18:04;;;;;;;3.90;3.00;;;29.50;44.70;;;;;;5097515;28;20427;-46
2022/06/11 10:20:40;;;;;;;3.90;3.33;;;30.10;42.50;;;;;;5099004;28;20735;-48
2022/06/11 10:23:20;;;;;;;3.53;2.50;;;30.60;42.00;;;;;;5098233;28;20538;-47
2022/06/11 10:25:49;;;;;;;4.33;2.60;;;30.40;41.90;;;;;;5098981;28;20400;-49
2022/06/11 10:28:33;;;;;;;3.53;3.00;;;30.10;40.50;;;;;;5099311;28;20708;-45
2022/06/11 10:31:27;;;;;;;4.17;3.37;;;29.70;41.30;;;;;;5097981;28;20547;-44
2022/06/11 10:33:58;;;;;;;3.30;2.63;;;29.60;43.60;;;;;;5093912;28;20424;-45
2022/06/11 10:36:34;;;;;;;3.17;2.63;;;29.70;41.60;;;;;;5097785;28;20452;-44
2022/06/11 10:39:21;;;;;;;4.97;3.30;;;29.40;40.50;;;;;;5097437;28;20415;-46
2022/06/11 10:41:59;;;;;;;3.07;2.67;;;28.70;41.20;;;;;;5096543;28;20410;-43
2022/06/11 10:44:35;;;;;;;2.70;2.50;;;28.20;42.80;;;;;;5097883;28;20392;-43
2022/06/11 10:47:04;;;;;;;2.90;2.70;;;28.20;43.40;;;;;;5096004;28;20471;-44
2022/06/11 10:49:29;;;;;;;4.67;2.70;;;28.60;43.60;;;;;;5095422;28;20424;-44
2022/06/11 10:52:08;;;;;;;3.37;2.80;;;29.20;42.00;;;;;;5096315;28;20732;-44
2022/06/11 10:54:33;;;;;;;3.00;2.63;;;29.50;40.60;;;;;;5095959;28;20566;-52
2022/06/11 10:57:11;;;;;;;4.13;2.60;;;30.00;41.50;;;;;;5095642;28;20418;-47
2022/06/11 10:59:48;;;;;;;3.13;2.70;;;30.50;40.50;;;;;;5096462;28;20186;-48
2022/06/11 11:02:30;;;;;;;2.60;2.40;;;30.50;39.80;;;;;;5095991;28;20856;-50
2022/06/11 11:05:03;;;;;;;2.57;2.37;;;30.30;40.10;;;;;;5094333;28;20450;-48
2022/06/11 11:07:52;;;;;;;3.20;2.70;;;30.30;40.40;;;;;;5096553;28;20428;-52
2022/06/11 11:10:41;;;;;;;2.50;2.30;;;30.40;40.10;;;;;;5086441;28;20479;-49
2022/06/11 11:13:23;;;;;;;2.77;2.50;;;30.50;39.80;;;;;;5096307;28;20492;-48
2022/06/11 11:16:15;;;;;;;3.60;2.60;;;31.10;41.00;;;;;;5098003;28;20423;-47
2022/06/11 11:18:53;;;;;;;4.70;2.53;;;31.40;38.50;;;;;;5085450;28;20402;-49
2022/06/11 11:21:31;;;;;;;2.80;2.47;;;30.70;39.00;;;;;;5094124;28;20417;-50
2022/06/11 11:24:22;;;;;;;3.10;2.80;;;30.70;39.50;;;;;;5095385;28;20775;-51
2022/06/11 11:27:00;;;;;;;5.23;2.90;;;30.30;39.60;;;;;;5064306;28;20441;-49
2022/06/11 11:29:34;;;;;;;4.40;3.13;;;30.60;39.40;;;;;;5095940;28;20493;-51
2022/06/11 11:32:07;;;;;;;3.10;2.73;;;31.10;38.50;;;;;;5097078;28;20506;-48
2022/06/11 11:34:35;;;;;;;5.33;3.10;;;31.60;38.30;;;;;;5096724;28;20406;-49
2022/06/11 11:37:13;;;;;;;4.50;2.97;;;31.80;37.90;;;;;;5094182;28;20412;-49
2022/06/11 11:39:53;;;;;;;4.17;2.70;;;31.40;38.00;;;;;;5096239;28;20978;-50
2022/06/11 11:42:22;;;;;;;5.30;3.50;;;31.30;37.50;;;;;;5096045;28;20525;-51
2022/06/11 11:44:50;;;;;;;4.17;2.63;;;30.90;38.00;;;;;;5094712;28;20737;-50
2022/06/11 11:47:34;;;;;;;3.83;2.80;;;31.10;38.40;;;;;;5093497;28;20423;-49
2022/06/11 11:50:13;;;;;;;3.03;2.73;;;31.40;37.90;;;;;;5093706;28;20544;-48
2022/06/11 11:52:43;;;;;;;3.30;2.70;;;31.80;38.50;;;;;;5094959;28;20450;-49
2022/06/11 11:55:29;;;;;;;3.80;2.70;;;32.50;38.30;;;;;;5093427;28;20411;-50
2022/06/11 11:58:22;;;;;;;3.70;2.70;;;33.00;36.50;;;;;;5094012;28;20507;-49
2022/06/11 12:00:59;;;;;;;4.27;2.50;;;33.20;36.20;;;;;;5093272;28;20430;-51
2022/06/11 12:03:37;;;;;;;2.60;2.17;;;33.20;35.70;;;;;;5093931;28;20423;-49
2022/06/11 12:06:03;;;;;;;2.53;2.20;;;33.10;35.70;;;;;;5094430;28;20435;-51
2022/06/11 12:08:37;;;;;;;3.17;2.87;;;33.10;35.50;;;;;;5092096;28;20460;-49
2022/06/11 12:11:05;;;;;;;3.63;2.30;;;33.10;35.70;;;;;;5093446;28;20465;-49
2022/06/11 12:13:45;;;;;;;3.40;2.73;;;33.00;35.70;;;;;;5093925;28;20841;-49
2022/06/11 12:16:18;;;;;;;4.70;2.57;;;32.80;35.40;;;;;;5093565;28;20417;-49
2022/06/11 12:18:49;;;;;;;4.67;2.40;;;33.00;34.90;;;;;;5091941;28;20726;-53
2022/06/11 12:21:24;;;;;;;10.80;3.00;;;33.20;35.50;;;;;;5092763;28;20402;-49
2022/06/11 12:23:56;;;;;;;4.43;3.40;;;33.20;35.30;;;;;;5096544;28;20446;-48
2022/06/11 12:26:27;;;;;;;3.60;3.17;;;33.10;35.80;;;;;;5095569;28;20423;-48
2022/06/11 12:28:57;;;;;;;3.67;2.70;;;33.30;35.90;;;;;;5096097;28;20826;-49
2022/06/11 12:31:22;;;;;;;3.87;2.77;;;33.50;35.30;;;;;;5095545;28;20445;-47
2022/06/11 12:33:50;;;;;;;5.00;3.53;;;33.20;35.60;;;;;;5096656;28;20421;-50
2022/06/11 12:36:43;;;;;;;3.33;2.70;;;32.20;35.90;;;;;;5095147;28;20173;-52
2022/06/11 12:39:17;;;;;;;3.60;2.60;;;31.30;36.20;;;;;;5093181;28;20389;-51
2022/06/11 12:41:55;;;;;;;3.07;2.77;;;31.70;37.20;;;;;;5096005;28;20823;-50
2022/06/11 12:44:25;;;;;;;6.33;2.90;;;32.10;36.70;;;;;;5094631;28;20491;-51
2022/06/11 12:47:01;;;;;;;4.80;3.10;;;32.90;37.70;;;;;;5094602;28;20436;-43
2022/06/11 12:49:36;;;;;;;4.00;3.30;;;33.50;35.10;;;;;;5094494;28;20887;-43
2022/06/11 12:52:24;;;;;;;4.40;2.93;;;33.60;35.00;;;;;;5093730;28;20879;-45
2022/06/11 12:55:27;;;;;;;3.40;2.90;;;33.70;34.70;;;;;;5094696;28;20403;-43
2022/06/11 12:58:01;;;;;;;4.03;2.87;;;34.20;35.20;;;;;;5094697;28;20400;-46
2022/06/11 13:00:36;;;;;;;4.00;2.83;;;34.80;36.10;;;;;;5095193;28;20426;-46
2022/06/11 13:03:16;;;;;;;3.03;2.73;;;35.30;34.40;;;;;;5094529;28;20850;-44
2022/06/11 13:06:07;;;;;;;3.27;2.97;;;35.50;33.40;;;;;;5093220;28;20724;-46
2022/06/11 13:08:38;;;;;;;2.47;2.27;;;35.80;33.50;;;;;;5093188;28;20425;-46
2022/06/11 13:11:29;;;;;;;2.70;2.20;;;35.60;33.20;;;;;;5093637;28;20477;-48
2022/06/11 13:13:55;;;;;;;5.43;2.70;;;36.10;33.40;;;;;;5082697;28;20444;-41
2022/06/11 13:16:35;;;;;;;3.30;3.00;;;36.30;33.70;;;;;;5093560;28;20522;-40
2022/06/11 13:19:20;;;;;;;3.30;2.70;;;36.50;32.30;;;;;;5093894;28;20173;-44
2022/06/11 13:21:51;;;;;;;2.73;2.53;;;36.40;32.50;;;;;;5092643;28;20399;-45